createdAt,value
2022-11-28T00:01:45.885Z,7.3
2022-11-28T00:11:47.602Z,7.4
2022-11-28T00:21:49.579Z,7.2
2022-11-28T00:31:51.700Z,7
2022-11-28T00:51:56.384Z,7
2022-11-28T01:01:58.570Z,6.8
2022-11-28T01:12:00.991Z,6.8
2022-11-28T01:22:02.952Z,7
2022-11-28T01:32:05.243Z,6.8
2022-11-28T01:42:07.788Z,6.8
2022-11-28T01:52:09.986Z,6.8
2022-11-28T02:02:11.880Z,6.8
2022-11-28T02:12:13.467Z,6.8
2022-11-28T02:22:15.170Z,6.7
2022-11-28T02:32:17.722Z,6.6
2022-11-28T02:42:19.537Z,6.7
2022-11-28T02:52:21.189Z,6.8
2022-11-28T03:02:23.359Z,6.7
2022-11-28T03:12:24.980Z,6.7
2022-11-28T03:22:27.290Z,6.7
2022-11-28T03:42:31.928Z,6.6
2022-11-28T03:52:34.417Z,6.6
2022-11-28T04:02:37.005Z,6.5
2022-11-28T04:12:39.496Z,6.5
2022-11-28T04:22:41.787Z,6.5
2022-11-28T04:32:44.281Z,6.4
2022-11-28T04:42:49.975Z,6.3
2022-11-28T04:52:48.077Z,6.4
2022-11-28T05:02:50.365Z,6.3
2022-11-28T05:12:52.937Z,6.2
2022-11-28T05:22:55.576Z,6.3
2022-11-28T05:42:59.959Z,6.4
2022-11-28T05:53:01.681Z,6.4
2022-11-28T06:03:03.933Z,6.6
2022-11-28T06:33:09.954Z,6.9
2022-11-28T06:43:12.486Z,6.8
2022-11-28T06:53:14.901Z,6.9
2022-11-28T07:03:17.013Z,6.8
2022-11-28T07:13:18.863Z,6.7
2022-11-28T07:23:21.055Z,6.9
2022-11-28T07:33:23.461Z,7
2022-11-28T07:43:25.393Z,7.2
2022-11-28T07:53:27.443Z,7.2
2022-11-28T08:03:29.964Z,7.2
2022-11-28T08:13:32.027Z,7.3
2022-11-28T08:23:33.917Z,7.3
2022-11-28T08:33:36.507Z,7.4
2022-11-28T08:43:38.511Z,7.4
2022-11-28T08:53:40.636Z,7.4
2022-11-28T09:03:42.713Z,7.5
2022-11-28T09:23:47.568Z,7.4
2022-11-28T09:33:49.369Z,7.4
2022-11-28T09:43:54.849Z,7.6
2022-11-28T09:53:53.597Z,7.6
2022-11-28T10:03:55.626Z,7.5
2022-11-28T10:14:07.998Z,7.7
2022-11-28T10:24:00.515Z,7.7
2022-11-28T10:44:04.398Z,7.7
2022-11-28T10:54:06.294Z,7.7
2022-11-28T11:04:08.605Z,8
2022-11-28T11:14:11.135Z,7.9
2022-11-28T11:24:12.959Z,8
2022-11-28T11:34:14.892Z,8
2022-11-28T11:44:16.803Z,7.9
2022-11-28T11:54:18.659Z,7.8
2022-11-28T12:04:43.540Z,7.7
2022-11-28T12:14:23.028Z,7.6
2022-11-28T12:24:25.187Z,7.6
2022-11-28T12:34:27.076Z,7.5
2022-11-28T12:44:28.991Z,7.5
2022-11-28T13:04:33.589Z,7.4
2022-11-28T13:14:35.900Z,7.5
2022-11-28T13:24:38.204Z,7.5
2022-11-28T13:34:39.997Z,7.4
2022-11-28T13:44:42.476Z,7.4
2022-11-28T13:54:44.406Z,7.4
2022-11-28T14:04:47.958Z,7.3
2022-11-28T14:14:48.320Z,7.3
2022-11-28T14:24:50.004Z,7.4
2022-11-28T14:34:52.164Z,7.4
2022-11-28T14:44:54.408Z,7.3
2022-11-28T14:54:56.460Z,7.3
2022-11-28T15:04:58.696Z,7.2
2022-11-28T15:15:00.546Z,7.2
2022-11-28T15:25:02.839Z,7.2
2022-11-28T15:35:09.342Z,7.2
2022-11-28T15:45:07.293Z,7.3
2022-11-28T15:55:08.973Z,7.2
2022-11-28T16:05:10.758Z,7.2
2022-11-28T16:15:13.307Z,7.3
2022-11-28T16:25:15.420Z,7.3
2022-11-28T16:35:17.547Z,7.2
2022-11-28T16:45:19.626Z,7.1
2022-11-28T16:55:22.166Z,7.3
2022-11-28T17:05:24.213Z,7.2
2022-11-28T17:15:26.854Z,7.3
2022-11-28T17:25:28.923Z,7.3
2022-11-28T17:55:35.793Z,7.3
2022-11-28T18:05:38.289Z,7.3
2022-11-28T18:15:40.535Z,7.3
2022-11-28T18:25:42.926Z,7.3
2022-11-28T18:35:45.314Z,7.4
2022-11-28T18:45:47.815Z,7.4
2022-11-28T18:55:50.055Z,7.4
2022-11-28T19:05:51.781Z,7.4
2022-11-28T19:15:53.847Z,7.4
2022-11-28T19:25:56.094Z,7.5
2022-11-28T19:35:57.746Z,7.5
2022-11-28T19:45:59.796Z,7.5
2022-11-28T19:56:01.844Z,7.5
2022-11-28T20:06:03.778Z,7.5
2022-11-28T20:16:05.648Z,7.6
2022-11-28T20:26:29.402Z,7.6
2022-11-28T20:36:16.259Z,7.6
2022-11-28T21:26:30.081Z,7.6
2022-11-28T21:36:29.612Z,7.6
2022-11-28T21:56:33.323Z,7.7
2022-11-28T22:16:37.220Z,7.7
2022-11-28T22:26:39.722Z,7.7
2022-11-28T22:46:43.889Z,7.8
2022-11-28T22:56:46.239Z,7.8
2022-11-28T23:06:48.246Z,7.8
2022-11-28T23:16:50.550Z,7.8
2022-11-28T23:26:52.340Z,7.8
2022-11-28T23:36:54.618Z,7.7
2022-11-28T23:46:56.843Z,7.7
2022-11-28T23:56:58.590Z,7.7
